Time;durP1;ratioP1;P1;durP2;ratioP2;P2;SDS_P1;SDS_P2;PMS_P1;PMS_P2;Temp;Humidity;BMP_temperature;BMP_pressure;BME280_temperature;BME280_humidity;BME280_pressure;Samples;Min_cycle;Max_cycle;Signal;HPM_P1;HPM_P2
2022/06/26 00:02:07;;;;;;;11.13;10.05;;;24.00;99.90;;;;;;5028843;28;20208;-75
2022/06/26 00:04:34;;;;;;;11.18;10.07;;;24.00;99.90;;;;;;5027855;28;20211;-75
2022/06/26 00:07:01;;;;;;;10.93;9.88;;;23.90;99.90;;;;;;5028348;28;20667;-75
2022/06/26 00:09:30;;;;;;;10.68;9.80;;;23.90;99.90;;;;;;5027873;28;20201;-75
2022/06/26 00:11:57;;;;;;;10.85;9.82;;;23.90;99.90;;;;;;5028296;28;20216;-75
2022/06/26 00:14:24;;;;;;;10.90;10.00;;;23.80;99.90;;;;;;5028129;28;20328;-75
2022/06/26 00:16:51;;;;;;;11.00;10.20;;;23.80;99.90;;;;;;5028539;28;20211;-75
2022/06/26 00:19:18;;;;;;;12.10;11.02;;;23.80;99.90;;;;;;5027972;28;20200;-75
2022/06/26 00:21:45;;;;;;;11.65;10.73;;;23.80;99.90;;;;;;5027980;28;20209;-75
2022/06/26 00:24:12;;;;;;;12.20;11.07;;;23.80;99.90;;;;;;5028248;28;20209;-75
2022/06/26 00:26:40;;;;;;;11.65;10.60;;;23.80;99.90;;;;;;5027851;28;20689;-75
2022/06/26 00:29:07;;;;;;;12.10;11.00;;;23.80;99.90;;;;;;5028356;28;20201;-75
2022/06/26 00:31:34;;;;;;;11.82;10.85;;;23.70;99.90;;;;;;5023192;28;20205;-75
2022/06/26 00:34:01;;;;;;;12.48;11.48;;;23.70;99.90;;;;;;5008434;28;20237;-75
2022/06/26 00:36:28;;;;;;;12.68;11.52;;;23.70;99.90;;;;;;5007371;28;20217;-75
2022/06/26 00:38:55;;;;;;;12.38;11.48;;;23.60;99.90;;;;;;5008434;28;20220;-75
2022/06/26 00:41:21;;;;;;;11.93;11.07;;;23.60;99.90;;;;;;5007936;28;20513;-75
2022/06/26 00:43:50;;;;;;;12.15;11.07;;;23.60;99.90;;;;;;5010305;28;20216;-75
2022/06/26 00:46:17;;;;;;;13.13;11.82;;;23.60;99.90;;;;;;5008318;28;20205;-75
2022/06/26 00:48:43;;;;;;;12.32;11.23;;;23.60;99.90;;;;;;5007901;28;20626;-75
2022/06/26 00:51:11;;;;;;;11.45;10.50;;;23.60;99.90;;;;;;5007920;28;20213;-75
2022/06/26 00:53:38;;;;;;;11.55;10.65;;;23.60;99.90;;;;;;5025728;28;20240;-75
2022/06/26 00:56:07;;;;;;;11.32;10.52;;;23.50;99.90;;;;;;5027834;28;20204;-75
2022/06/26 00:58:35;;;;;;;12.13;11.23;;;23.50;99.90;;;;;;5027827;28;20586;-75
2022/06/26 01:01:06;;;;;;;12.50;11.32;;;23.50;99.90;;;;;;5012030;28;20219;-75
2022/06/26 01:03:33;;;;;;;11.57;10.68;;;23.50;99.90;;;;;;5007783;28;20220;-75
2022/06/26 01:06:00;;;;;;;11.30;10.40;;;23.50;99.90;;;;;;5007791;28;20214;-75
2022/06/26 01:08:27;;;;;;;11.90;10.68;;;23.40;99.90;;;;;;5023340;28;20740;-76
2022/06/26 01:10:54;;;;;;;12.70;11.50;;;23.40;99.90;;;;;;5027314;28;20247;-75
2022/06/26 01:13:21;;;;;;;11.63;10.90;;;23.40;99.90;;;;;;5027859;28;20307;-75
2022/06/26 01:15:48;;;;;;;11.35;10.38;;;23.40;99.90;;;;;;5030478;28;20675;-75
2022/06/26 01:18:16;;;;;;;10.93;9.65;;;23.40;99.90;;;;;;5031466;28;20208;-75
2022/06/26 01:20:43;;;;;;;10.63;9.73;;;23.30;99.90;;;;;;5031441;28;20220;-75
2022/06/26 01:23:11;;;;;;;10.45;9.57;;;23.30;99.90;;;;;;5031324;28;20235;-75
2022/06/26 01:25:46;;;;;;;10.07;9.20;;;23.30;99.90;;;;;;5031255;28;20695;-75
2022/06/26 01:28:13;;;;;;;9.65;8.95;;;23.30;99.90;;;;;;5030880;28;20199;-75
2022/06/26 01:30:40;;;;;;;9.93;9.23;;;23.20;99.90;;;;;;5030938;28;20208;-75
2022/06/26 01:33:08;;;;;;;9.60;8.95;;;23.20;99.90;;;;;;5031402;28;20221;-75
2022/06/26 01:35:35;;;;;;;9.40;8.80;;;23.20;99.90;;;;;;5031118;28;20204;-75
2022/06/26 01:38:12;;;;;;;11.10;10.18;;;23.10;99.90;;;;;;5031288;28;20643;-75
2022/06/26 01:40:39;;;;;;;11.25;10.27;;;23.10;99.90;;;;;;5030971;28;20244;-75
2022/06/26 01:43:06;;;;;;;10.05;9.45;;;23.00;99.90;;;;;;5029392;28;20214;-75
2022/06/26 01:45:33;;;;;;;11.00;10.10;;;23.00;99.90;;;;;;5011428;28;20209;-75
2022/06/26 01:47:59;;;;;;;10.82;9.93;;;23.00;99.90;;;;;;5011186;28;20215;-76
2022/06/26 01:50:26;;;;;;;11.27;10.27;;;23.00;99.90;;;;;;5011394;28;20237;-75
2022/06/26 01:52:53;;;;;;;10.50;9.77;;;23.00;99.90;;;;;;5023585;28;20311;-75
2022/06/26 01:55:21;;;;;;;11.52;10.57;;;23.00;99.90;;;;;;5029972;28;20216;-75
2022/06/26 01:57:48;;;;;;;12.02;11.15;;;23.00;99.90;;;;;;5024306;28;20197;-75
2022/06/26 02:00:15;;;;;;;12.85;11.95;;;23.00;99.90;;;;;;5011269;28;20690;-75
2022/06/26 02:02:42;;;;;;;12.77;11.70;;;23.00;99.90;;;;;;5011141;28;20213;-75
2022/06/26 02:05:09;;;;;;;13.68;12.52;;;23.10;99.90;;;;;;5030830;28;20209;-75
2022/06/26 02:07:36;;;;;;;13.73;12.60;;;23.10;99.90;;;;;;5030672;28;20209;-75
2022/06/26 02:15:33;;;;;;;13.80;12.55;;;23.00;99.90;;;;;;5030529;28;20192;-75
2022/06/26 02:18:00;;;;;;;13.70;12.48;;;23.00;99.90;;;;;;5030724;28;20212;-75
2022/06/26 02:20:27;;;;;;;14.18;13.07;;;23.00;99.90;;;;;;5030243;28;20205;-75
2022/06/26 02:22:53;;;;;;;13.48;11.90;;;22.90;99.90;;;;;;5030405;28;20219;-75
2022/06/26 02:25:20;;;;;;;13.20;12.00;;;22.90;99.90;;;;;;5013400;28;20577;-76
2022/06/26 02:27:49;;;;;;;12.82;11.93;;;23.00;99.90;;;;;;5009359;28;20729;-75
2022/06/26 02:30:16;;;;;;;13.85;12.50;;;23.00;99.90;;;;;;5023005;28;20255;-75
2022/06/26 02:32:42;;;;;;;13.60;12.45;;;23.00;99.90;;;;;;5030519;28;20216;-75
2022/06/26 02:35:10;;;;;;;13.82;12.45;;;23.00;99.90;;;;;;5030474;28;20229;-75
2022/06/26 02:37:37;;;;;;;13.32;12.32;;;23.00;99.90;;;;;;5029861;28;20817;-75
2022/06/26 02:40:05;;;;;;;13.55;12.55;;;23.00;99.90;;;;;;5030188;28;20209;-75
2022/06/26 02:42:32;;;;;;;13.50;12.48;;;22.90;99.90;;;;;;5029642;28;20247;-75
2022/06/26 02:45:01;;;;;;;14.35;13.35;;;22.90;99.90;;;;;;5030311;28;20209;-75
2022/06/26 02:47:27;;;;;;;13.43;12.52;;;22.90;99.90;;;;;;5029930;28;20864;-75
2022/06/26 02:49:54;;;;;;;13.73;12.70;;;22.90;99.90;;;;;;5030182;28;20208;-75
2022/06/26 02:52:21;;;;;;;13.82;12.85;;;22.90;99.90;;;;;;5028016;28;20213;-75
2022/06/26 02:54:48;;;;;;;13.73;12.73;;;22.80;99.90;;;;;;5029734;28;20232;-75
2022/06/26 02:57:15;;;;;;;14.85;13.65;;;22.80;99.90;;;;;;5025820;28;20754;-75
2022/06/26 02:59:41;;;;;;;14.77;13.70;;;22.80;99.90;;;;;;5029162;28;20569;-75
2022/06/26 03:02:09;;;;;;;14.48;13.30;;;22.80;99.90;;;;;;5012392;28;20224;-75
2022/06/26 03:04:36;;;;;;;14.73;13.52;;;22.80;99.90;;;;;;5009979;28;20593;-75
2022/06/26 03:07:03;;;;;;;14.63;13.57;;;22.80;99.90;;;;;;5009907;28;20205;-75
2022/06/26 03:09:30;;;;;;;15.00;13.90;;;22.80;99.90;;;;;;5009583;28;20260;-75
2022/06/26 03:11:57;;;;;;;15.05;13.95;;;22.80;99.90;;;;;;5009504;28;20216;-75
2022/06/26 03:14:24;;;;;;;15.38;14.20;;;22.80;99.90;;;;;;5025013;28;20232;-75
2022/06/26 03:16:51;;;;;;;14.90;13.77;;;22.80;99.90;;;;;;5028705;28;20204;-75
2022/06/26 03:19:19;;;;;;;14.65;13.55;;;22.80;99.90;;;;;;5029586;28;20208;-75
2022/06/26 03:21:46;;;;;;;15.77;14.48;;;22.80;99.90;;;;;;5028972;28;20217;-75
2022/06/26 03:24:13;;;;;;;14.95;13.73;;;22.80;99.90;;;;;;5029123;28;20672;-75
2022/06/26 03:26:40;;;;;;;14.95;13.75;;;22.80;99.90;;;;;;5028349;28;20213;-75
2022/06/26 03:29:10;;;;;;;14.85;13.60;;;22.80;99.90;;;;;;5029008;28;20205;-75
2022/06/26 03:31:37;;;;;;;14.85;13.70;;;22.80;99.90;;;;;;5029147;28;20213;-75
2022/06/26 03:34:05;;;;;;;16.40;15.02;;;22.70;99.90;;;;;;5028737;28;20233;-75
2022/06/26 03:36:34;;;;;;;14.38;13.27;;;22.80;99.90;;;;;;5028599;28;20209;-75
2022/06/26 03:39:01;;;;;;;17.00;15.73;;;22.80;99.90;;;;;;5028838;28;20974;-75
2022/06/26 03:41:28;;;;;;;18.02;16.52;;;22.80;99.90;;;;;;5028554;28;20248;-75
2022/06/26 03:43:55;;;;;;;18.13;16.63;;;22.80;99.90;;;;;;5028999;28;20216;-75
2022/06/26 03:46:22;;;;;;;17.50;16.20;;;22.90;99.90;;;;;;5028986;28;20204;-75
2022/06/26 03:48:49;;;;;;;20.13;18.25;;;22.90;99.90;;;;;;5018762;28;20216;-75
2022/06/26 03:51:16;;;;;;;19.67;18.27;;;23.00;99.90;;;;;;5009265;28;20216;-75
2022/06/26 03:53:44;;;;;;;18.52;17.02;;;23.00;99.90;;;;;;5027581;28;20232;-75
2022/06/26 03:56:11;;;;;;;18.70;17.30;;;23.00;99.90;;;;;;5028476;28;20201;-75
2022/06/26 03:58:41;;;;;;;18.02;16.73;;;23.00;99.90;;;;;;5028532;28;20266;-75
2022/06/26 04:01:08;;;;;;;17.92;16.52;;;23.00;99.90;;;;;;5015980;28;20205;-75
2022/06/26 04:03:35;;;;;;;18.25;16.88;;;23.00;99.90;;;;;;5008974;28;20304;-76
2022/06/26 04:06:01;;;;;;;19.10;17.48;;;23.10;99.90;;;;;;5008596;28;20226;-75
2022/06/26 04:08:28;;;;;;;18.20;16.80;;;23.00;99.90;;;;;;5013199;28;20216;-75
2022/06/26 04:10:56;;;;;;;17.70;16.42;;;23.10;99.90;;;;;;5017366;28;20212;-75
2022/06/26 04:13:23;;;;;;;17.42;16.13;;;23.10;99.90;;;;;;5015695;28;20223;-75
2022/06/26 04:15:50;;;;;;;17.85;16.45;;;23.10;99.90;;;;;;5028245;28;20264;-73
2022/06/26 04:18:17;;;;;;;17.55;16.25;;;23.10;99.90;;;;;;5028439;28;20207;-73
2022/06/26 04:20:44;;;;;;;17.77;16.38;;;23.10;99.90;;;;;;5028109;28;20315;-74
2022/06/26 04:23:12;;;;;;;18.02;16.45;;;23.20;99.90;;;;;;5016028;28;20206;-74
2022/06/26 04:25:40;;;;;;;16.42;15.32;;;23.20;99.90;;;;;;5008385;28;20229;-74
2022/06/26 04:28:09;;;;;;;16.75;15.45;;;23.20;99.90;;;;;;5008511;28;20212;-74
2022/06/26 04:30:38;;;;;;;16.08;14.88;;;23.20;99.90;;;;;;5023352;28;20204;-74
2022/06/26 04:33:05;;;;;;;16.67;15.38;;;23.20;99.90;;;;;;5028244;28;20251;-74
2022/06/26 04:35:32;;;;;;;16.30;15.00;;;23.20;99.90;;;;;;5014263;28;20236;-74
2022/06/26 04:37:58;;;;;;;16.30;14.90;;;23.20;99.90;;;;;;5008278;28;20209;-74
2022/06/26 04:40:25;;;;;;;15.23;14.13;;;23.30;99.90;;;;;;5007992;28;20297;-74
2022/06/26 04:42:53;;;;;;;15.18;14.20;;;23.30;99.90;;;;;;5010918;28;20209;-74
2022/06/26 04:45:21;;;;;;;14.48;13.35;;;23.30;99.90;;;;;;5015327;28;20672;-74
2022/06/26 04:47:48;;;;;;;15.77;14.48;;;23.30;99.90;;;;;;5025807;28;20216;-74
2022/06/26 04:50:15;;;;;;;16.35;15.02;;;23.30;99.90;;;;;;5027646;28;20360;-74
2022/06/26 04:52:45;;;;;;;15.20;13.93;;;23.30;99.90;;;;;;5026299;28;20205;-74
2022/06/26 04:55:12;;;;;;;14.18;13.07;;;23.30;99.90;;;;;;5027811;28;20638;-74
2022/06/26 04:57:38;;;;;;;15.60;14.30;;;23.30;99.90;;;;;;5027622;28;20209;-74
2022/06/26 05:00:08;;;;;;;15.25;14.02;;;23.40;99.90;;;;;;5027830;28;20212;-74
2022/06/26 05:02:37;;;;;;;15.07;13.98;;;23.40;99.90;;;;;;5026709;28;20685;-74
2022/06/26 05:05:04;;;;;;;14.07;12.98;;;23.40;99.90;;;;;;5028058;28;20204;-74
2022/06/26 05:07:31;;;;;;;15.40;14.20;;;23.40;99.90;;;;;;5026977;28;20200;-74
2022/06/26 05:09:58;;;;;;;15.32;14.10;;;23.40;99.90;;;;;;5027781;28;20205;-74
2022/06/26 05:12:25;;;;;;;14.20;13.10;;;23.40;99.90;;;;;;5027219;28;20203;-74
2022/06/26 05:14:52;;;;;;;14.77;13.52;;;23.40;99.90;;;;;;5027571;28;20235;-74
2022/06/26 05:17:19;;;;;;;14.98;13.73;;;23.40;99.90;;;;;;5027706;28;20215;-74
2022/06/26 05:19:47;;;;;;;13.90;12.90;;;23.40;99.90;;;;;;5027379;28;20209;-74
2022/06/26 05:22:14;;;;;;;14.35;13.25;;;23.40;99.90;;;;;;5027151;28;20663;-74
2022/06/26 05:24:40;;;;;;;14.38;13.38;;;23.40;99.90;;;;;;5027470;28;20211;-74
2022/06/26 05:27:07;;;;;;;14.07;13.00;;;23.40;99.90;;;;;;5020201;28;20220;-74
2022/06/26 05:29:34;;;;;;;14.00;13.10;;;23.50;99.90;;;;;;5014074;28;20205;-75
2022/06/26 05:32:01;;;;;;;14.18;12.95;;;23.50;99.90;;;;;;5027645;28;20205;-74
2022/06/26 05:34:27;;;;;;;13.90;12.90;;;23.40;99.90;;;;;;5027271;28;20224;-74
2022/06/26 05:36:55;;;;;;;14.15;12.88;;;23.50;99.90;;;;;;5027340;28;20205;-74
2022/06/26 05:39:22;;;;;;;13.63;12.57;;;23.50;99.90;;;;;;5021894;28;20208;-74
2022/06/26 05:41:49;;;;;;;14.05;13.02;;;23.50;99.90;;;;;;5021084;28;20236;-75
2022/06/26 05:44:16;;;;;;;13.50;12.52;;;23.50;99.90;;;;;;5027559;28;20225;-74
2022/06/26 05:46:43;;;;;;;13.15;12.25;;;23.50;99.90;;;;;;5027351;28;20205;-74
2022/06/26 05:49:10;;;;;;;13.40;12.43;;;23.50;99.90;;;;;;5021162;28;20219;-74
2022/06/26 05:51:37;;;;;;;13.25;12.35;;;23.50;99.90;;;;;;5022587;28;20206;-76
2022/06/26 05:54:05;;;;;;;13.40;12.50;;;23.50;99.90;;;;;;5027108;28;20212;-75
2022/06/26 05:56:31;;;;;;;13.90;12.80;;;23.60;99.90;;;;;;5027054;28;20215;-74
2022/06/26 05:58:58;;;;;;;13.63;12.55;;;23.60;99.90;;;;;;5027318;28;20205;-74
2022/06/26 06:01:25;;;;;;;13.18;12.23;;;23.60;99.90;;;;;;5028113;28;20209;-74
2022/06/26 06:03:52;;;;;;;13.77;12.63;;;23.60;99.90;;;;;;5020547;28;20233;-74
2022/06/26 06:06:19;;;;;;;14.35;12.90;;;23.70;99.90;;;;;;5011217;28;20214;-75
2022/06/26 06:08:45;;;;;;;13.25;12.25;;;23.70;99.90;;;;;;5011014;28;20210;-74
2022/06/26 06:11:13;;;;;;;12.88;11.80;;;23.70;99.90;;;;;;5010927;28;20206;-74
2022/06/26 06:13:40;;;;;;;13.40;12.18;;;23.80;99.90;;;;;;5020068;28;20209;-74
2022/06/26 06:16:07;;;;;;;12.10;11.20;;;23.80;99.90;;;;;;5030415;28;20251;-74
2022/06/26 06:18:34;;;;;;;13.35;12.45;;;23.80;99.90;;;;;;5030641;28;20209;-74
2022/06/26 06:21:01;;;;;;;13.77;12.68;;;23.90;99.90;;;;;;5030312;28;20209;-74
2022/06/26 06:23:28;;;;;;;12.63;11.82;;;24.00;99.90;;;;;;5030126;28;20287;-74
2022/06/26 06:25:54;;;;;;;13.02;12.00;;;23.90;99.90;;;;;;5030200;28;20229;-74
2022/06/26 06:28:23;;;;;;;12.45;11.65;;;24.00;99.90;;;;;;5020538;28;20574;-75
2022/06/26 06:30:50;;;;;;;10.90;10.20;;;24.00;99.90;;;;;;5027038;28;20223;-74
2022/06/26 06:33:16;;;;;;;11.30;10.32;;;24.00;99.90;;;;;;5030325;28;20236;-74
2022/06/26 06:35:43;;;;;;;11.00;10.10;;;24.00;99.90;;;;;;5029687;28;20231;-74
2022/06/26 06:38:10;;;;;;;10.10;9.48;;;24.10;99.90;;;;;;5029733;28;20216;-75
2022/06/26 06:40:37;;;;;;;9.75;9.05;;;24.10;99.90;;;;;;5019126;28;20213;-75
2022/06/26 06:43:04;;;;;;;10.68;10.07;;;24.20;99.90;;;;;;5014881;28;20224;-74
2022/06/26 06:45:32;;;;;;;10.40;9.70;;;24.20;99.90;;;;;;5020868;28;20231;-75
2022/06/26 06:47:59;;;;;;;10.18;9.50;;;24.20;99.90;;;;;;5010036;28;20213;-75
2022/06/26 06:50:25;;;;;;;9.52;8.82;;;24.30;99.90;;;;;;5009846;28;20305;-74
2022/06/26 06:52:52;;;;;;;8.65;8.05;;;24.30;99.90;;;;;;5021824;28;20205;-74
2022/06/26 06:55:19;;;;;;;9.23;8.52;;;24.30;99.90;;;;;;5029662;28;20236;-74
2022/06/26 06:57:46;;;;;;;7.63;7.13;;;24.40;99.90;;;;;;5029623;28;20205;-74
2022/06/26 07:00:13;;;;;;;7.28;6.82;;;24.40;99.90;;;;;;5029966;28;20219;-74
2022/06/26 07:02:41;;;;;;;7.00;6.53;;;24.50;99.90;;;;;;5029613;28;20209;-74
2022/06/26 07:05:09;;;;;;;5.40;5.20;;;24.50;99.90;;;;;;5029577;28;20209;-74
2022/06/26 07:07:37;;;;;;;5.65;5.35;;;24.50;99.90;;;;;;5029267;28;20205;-75
2022/06/26 07:10:05;;;;;;;5.82;5.53;;;24.60;99.90;;;;;;5029474;28;20217;-74
2022/06/26 07:12:32;;;;;;;5.38;5.10;;;24.60;99.90;;;;;;5028869;28;20209;-74
2022/06/26 07:14:58;;;;;;;6.35;5.75;;;24.60;99.90;;;;;;5009815;28;20236;-74
2022/06/26 07:17:25;;;;;;;5.25;4.75;;;24.60;99.90;;;;;;5009716;28;20206;-74
2022/06/26 07:19:53;;;;;;;5.60;5.10;;;24.70;99.90;;;;;;5009293;28;20206;-74
2022/06/26 07:22:20;;;;;;;5.30;5.00;;;24.70;99.90;;;;;;5009217;28;20209;-74
2022/06/26 07:24:47;;;;;;;5.50;5.10;;;24.80;99.90;;;;;;5009459;28;20539;-74
2022/06/26 07:27:15;;;;;;;5.53;5.22;;;24.80;99.90;;;;;;5009444;28;20229;-74
2022/06/26 07:29:43;;;;;;;5.28;5.07;;;24.80;99.90;;;;;;5016671;28;20684;-74
2022/06/26 07:32:09;;;;;;;5.63;5.32;;;24.80;99.90;;;;;;5029168;28;20218;-74
2022/06/26 07:34:36;;;;;;;6.45;5.90;;;24.90;99.90;;;;;;5028368;28;20208;-74
2022/06/26 07:37:05;;;;;;;6.18;5.88;;;24.90;99.90;;;;;;5027968;28;20204;-75
2022/06/26 07:39:31;;;;;;;6.43;5.95;;;24.90;99.90;;;;;;5027995;28;20212;-74
2022/06/26 07:41:58;;;;;;;7.80;5.90;;;25.00;99.90;;;;;;5028320;28;20258;-74
2022/06/26 07:44:25;;;;;;;6.93;6.50;;;25.00;99.90;;;;;;5028410;28;20223;-74
2022/06/26 07:46:52;;;;;;;6.72;6.03;;;25.00;99.90;;;;;;5028398;28;20674;-74
2022/06/26 07:49:19;;;;;;;6.60;6.20;;;25.00;99.90;;;;;;5028644;28;20209;-74
2022/06/26 07:51:45;;;;;;;6.22;5.90;;;25.00;99.90;;;;;;5028253;28;20201;-75
2022/06/26 07:54:14;;;;;;;6.88;6.35;;;25.10;99.90;;;;;;5028603;28;20207;-74
2022/06/26 07:56:41;;;;;;;6.78;6.32;;;25.10;99.90;;;;;;5028241;28;20228;-74
2022/06/26 07:59:10;;;;;;;6.22;5.93;;;25.20;99.90;;;;;;5028709;28;20204;-75
2022/06/26 08:01:36;;;;;;;6.82;6.45;;;25.20;99.90;;;;;;5028058;28;20572;-75
2022/06/26 08:04:03;;;;;;;6.65;6.25;;;25.20;99.90;;;;;;5027756;28;20203;-74
2022/06/26 08:06:30;;;;;;;6.82;6.53;;;25.20;99.90;;;;;;5028280;28;20207;-74
2022/06/26 08:08:58;;;;;;;6.55;6.15;;;25.20;99.90;;;;;;5028104;28;20209;-74
2022/06/26 08:11:26;;;;;;;7.28;6.88;;;25.20;99.90;;;;;;5028304;28;20213;-75
2022/06/26 08:13:53;;;;;;;7.00;6.57;;;25.30;99.90;;;;;;5026700;28;20219;-75
2022/06/26 08:16:20;;;;;;;7.93;7.40;;;25.30;99.90;;;;;;5028361;28;20232;-75
2022/06/26 08:18:47;;;;;;;7.63;7.22;;;25.40;99.90;;;;;;5028195;28;20216;-74
2022/06/26 08:23:58;;;;;;;7.97;7.40;;;25.40;99.90;;;;;;5027297;28;20278;-74
2022/06/26 08:26:27;;;;;;;8.18;7.47;;;25.50;99.90;;;;;;5027901;28;20234;-75
2022/06/26 08:28:53;;;;;;;7.95;7.45;;;25.50;99.90;;;;;;5027715;28;20699;-74
2022/06/26 08:31:20;;;;;;;7.47;6.85;;;25.60;99.90;;;;;;5024743;28;20205;-74
2022/06/26 08:33:47;;;;;;;7.47;7.07;;;25.60;99.90;;;;;;5008345;28;20209;-75
2022/06/26 08:36:14;;;;;;;6.97;6.53;;;25.70;99.90;;;;;;5007711;28;20351;-74
2022/06/26 08:38:40;;;;;;;6.85;6.50;;;25.80;99.90;;;;;;5025458;28;20212;-74
2022/06/26 08:41:09;;;;;;;6.38;5.90;;;25.80;99.90;;;;;;5027402;28;20730;-74
2022/06/26 08:43:40;;;;;;;6.43;6.13;;;25.90;99.90;;;;;;5027668;28;20336;-75
2022/06/26 08:46:07;;;;;;;6.57;6.20;;;25.90;99.90;;;;;;5027778;28;20680;-75
2022/06/26 08:48:42;;;;;;;7.53;7.03;;;25.90;99.90;;;;;;5027499;28;20219;-74
2022/06/26 08:51:09;;;;;;;7.22;6.80;;;25.90;99.90;;;;;;5027608;28;20204;-75
2022/06/26 08:53:37;;;;;;;6.65;6.28;;;25.90;99.90;;;;;;5027392;28;20655;-75
2022/06/26 08:56:07;;;;;;;6.85;6.45;;;26.10;99.90;;;;;;5027359;28;20323;-74
2022/06/26 08:58:34;;;;;;;7.00;6.60;;;26.20;99.90;;;;;;5027776;28;20211;-74
2022/06/26 09:01:06;;;;;;;7.28;6.80;;;26.30;99.90;;;;;;5011619;28;20201;-74
2022/06/26 09:03:34;;;;;;;7.05;6.65;;;26.30;99.90;;;;;;5007872;28;20198;-75
2022/06/26 09:06:01;;;;;;;7.53;6.93;;;26.40;99.90;;;;;;5009972;28;20228;-75
2022/06/26 09:08:30;;;;;;;6.88;6.45;;;26.40;99.90;;;;;;5027481;28;20231;-75
2022/06/26 09:10:58;;;;;;;6.68;6.18;;;26.50;99.90;;;;;;5027112;28;20204;-75
2022/06/26 09:13:36;;;;;;;5.60;5.30;;;26.60;99.90;;;;;;5019712;28;20694;-74
2022/06/26 09:16:07;;;;;;;5.57;5.18;;;26.60;99.90;;;;;;5007641;28;20228;-74
2022/06/26 09:18:35;;;;;;;5.53;5.13;;;26.70;99.90;;;;;;5007583;28;20547;-75
2022/06/26 09:21:05;;;;;;;5.80;5.38;;;26.70;99.90;;;;;;5007349;28;20348;-75
2022/06/26 09:23:32;;;;;;;5.05;4.75;;;26.80;99.90;;;;;;5007634;28;20857;-75
2022/06/26 09:26:00;;;;;;;5.75;5.25;;;26.90;99.90;;;;;;5014290;28;20240;-75
2022/06/26 09:28:27;;;;;;;5.30;4.93;;;27.00;99.90;;;;;;5027096;28;20679;-75
2022/06/26 09:30:55;;;;;;;5.45;5.07;;;27.00;99.90;;;;;;5010021;28;20198;-75
2022/06/26 09:33:24;;;;;;;5.60;5.20;;;27.00;99.90;;;;;;5012356;28;20203;-75
2022/06/26 09:35:52;;;;;;;5.63;5.30;;;27.10;99.90;;;;;;5028612;28;20231;-75
2022/06/26 09:38:20;;;;;;;5.78;5.38;;;27.00;99.90;;;;;;5031124;28;20212;-75
2022/06/26 09:40:52;;;;;;;6.03;5.63;;;27.10;99.90;;;;;;5029585;28;20232;-75
2022/06/26 09:43:30;;;;;;;5.68;5.35;;;27.10;99.90;;;;;;5024319;28;20205;-75
2022/06/26 09:45:58;;;;;;;5.72;5.43;;;27.10;99.90;;;;;;5011191;28;20208;-75
2022/06/26 09:48:26;;;;;;;5.90;5.60;;;27.10;99.90;;;;;;5011252;28;20209;-75
2022/06/26 09:50:54;;;;;;;6.35;5.85;;;27.10;99.90;;;;;;5010913;28;20232;-75
2022/06/26 09:53:22;;;;;;;9.52;5.93;;;27.20;99.90;;;;;;5026799;28;20674;-75
2022/06/26 09:55:51;;;;;;;12.40;5.72;;;27.20;99.90;;;;;;5030386;28;20601;-75
2022/06/26 09:58:19;;;;;;;8.18;7.57;;;27.20;99.90;;;;;;5030792;28;20237;-75
2022/06/26 10:06:25;;;;;;;8.23;7.72;;;27.20;99.90;;;;;;5030871;28;20220;-75
2022/06/26 10:06:28;;;;;;;5.70;5.40;;;27.30;99.90;;;;;;5030189;28;20200;-75
2022/06/26 10:08:56;;;;;;;6.85;5.80;;;27.30;99.90;;;;;;5030421;28;20189;-75
2022/06/26 10:11:24;;;;;;;5.82;5.43;;;27.50;99.90;;;;;;5030717;28;20236;-75
2022/06/26 10:13:54;;;;;;;5.55;5.25;;;27.40;99.90;;;;;;5030397;28;20575;-75
2022/06/26 10:16:36;;;;;;;5.90;5.38;;;27.40;99.90;;;;;;5029881;28;20633;-75
2022/06/26 10:19:23;;;;;;;5.60;5.30;;;27.40;99.90;;;;;;5030347;28;20197;-75
2022/06/26 10:21:51;;;;;;;5.80;5.50;;;27.40;99.90;;;;;;5028584;28;20202;-75
2022/06/26 10:24:18;;;;;;;5.43;4.88;;;27.40;99.90;;;;;;5030351;28;20212;-75
2022/06/26 10:26:53;;;;;;;5.70;5.30;;;27.40;99.90;;;;;;5030067;28;20228;-75
2022/06/26 10:29:20;;;;;;;5.40;5.10;;;27.50;99.90;;;;;;5030078;28;20208;-75
2022/06/26 10:31:48;;;;;;;5.63;5.20;;;27.50;99.90;;;;;;5029794;28;20209;-75
2022/06/26 10:34:16;;;;;;;5.78;5.47;;;27.60;99.90;;;;;;5029071;28;20213;-75
2022/06/26 10:36:57;;;;;;;6.72;5.50;;;27.70;99.90;;;;;;5028933;28;20375;-75
2022/06/26 10:39:24;;;;;;;6.13;5.05;;;27.70;99.90;;;;;;5030213;28;20541;-75
2022/06/26 10:44:45;;;;;;;5.30;4.80;;;27.80;99.90;;;;;;5029748;28;20231;-75
2022/06/26 10:47:16;;;;;;;4.88;4.57;;;27.80;99.90;;;;;;5029277;28;20655;-74
2022/06/26 10:49:53;;;;;;;5.15;4.68;;;27.90;99.90;;;;;;5029427;28;20209;-75
2022/06/26 10:52:29;;;;;;;5.00;4.70;;;28.00;99.90;;;;;;5029925;28;20208;-75
2022/06/26 10:54:59;;;;;;;5.25;4.78;;;28.10;99.90;;;;;;5029944;28;20201;-75
2022/06/26 10:57:35;;;;;;;4.70;4.50;;;28.20;99.90;;;;;;5029204;28;20327;-75
2022/06/26 11:00:04;;;;;;;4.63;4.25;;;28.30;99.90;;;;;;5029107;28;20193;-75
2022/06/26 11:02:37;;;;;;;5.68;5.07;;;28.50;99.90;;;;;;5029522;28;20212;-75
2022/06/26 11:05:05;;;;;;;4.97;4.60;;;28.60;99.90;;;;;;5023821;28;20636;-75
2022/06/26 11:07:46;;;;;;;5.00;4.25;;;28.60;99.90;;;;;;5029177;28;20204;-75
2022/06/26 11:10:15;;;;;;;5.30;4.80;;;28.70;99.90;;;;;;5029306;28;20201;-75
2022/06/26 11:12:43;;;;;;;6.38;4.40;;;28.80;99.90;;;;;;5028040;28;20213;-75
2022/06/26 11:15:24;;;;;;;4.70;4.40;;;28.90;99.90;;;;;;5009734;28;20213;-75
2022/06/26 11:17:56;;;;;;;4.22;4.03;;;28.90;99.90;;;;;;5010493;28;20593;-75
2022/06/26 11:23:18;;;;;;;4.70;4.40;;;29.00;99.90;;;;;;5009366;28;20268;-75
2022/06/26 11:25:46;;;;;;;4.88;4.45;;;29.10;99.90;;;;;;5012865;28;20224;-75
2022/06/26 11:28:14;;;;;;;4.47;4.10;;;29.30;99.90;;;;;;5029396;28;20219;-75
2022/06/26 11:30:42;;;;;;;4.28;4.07;;;29.50;99.40;;;;;;5013047;28;20209;-75
2022/06/26 11:33:10;;;;;;;3.95;3.75;;;29.70;99.60;;;;;;5009053;28;20569;-75
2022/06/26 11:35:38;;;;;;;4.28;4.07;;;29.80;98.80;;;;;;5009156;28;20204;-75
2022/06/26 11:38:16;;;;;;;4.55;4.35;;;29.80;98.70;;;;;;5008786;28;20240;-75
2022/06/26 11:40:44;;;;;;;4.18;3.88;;;29.90;99.10;;;;;;5008778;28;20281;-75
2022/06/26 11:43:12;;;;;;;4.57;4.25;;;30.00;98.90;;;;;;5014779;28;20215;-75
2022/06/26 11:45:40;;;;;;;4.20;3.90;;;30.10;98.50;;;;;;5028694;28;20208;-75
2022/06/26 11:48:10;;;;;;;4.18;3.78;;;30.30;98.10;;;;;;5028710;28;20271;-75
2022/06/26 11:50:38;;;;;;;3.53;3.33;;;30.50;97.70;;;;;;5028521;28;20284;-75
2022/06/26 11:53:05;;;;;;;4.00;3.80;;;30.70;96.90;;;;;;5028308;28;20212;-75
2022/06/26 11:55:34;;;;;;;3.92;3.72;;;30.90;96.60;;;;;;5028432;28;20213;-75
2022/06/26 11:58:03;;;;;;;3.67;3.47;;;30.90;96.80;;;;;;5028394;28;20236;-75
2022/06/26 12:00:30;;;;;;;3.80;3.50;;;31.00;96.50;;;;;;5010105;28;20244;-75
2022/06/26 12:02:57;;;;;;;3.70;3.50;;;31.10;96.50;;;;;;5008774;28;20256;-75
2022/06/26 12:05:27;;;;;;;3.78;3.58;;;31.20;96.40;;;;;;5008939;28;20208;-75
2022/06/26 12:07:55;;;;;;;3.90;3.70;;;31.20;95.90;;;;;;5008008;28;20660;-76
2022/06/26 12:10:30;;;;;;;3.38;3.28;;;31.30;95.80;;;;;;5008480;28;20205;-75
2022/06/26 12:13:00;;;;;;;3.42;3.22;;;31.50;95.30;;;;;;5012045;28;20216;-76
2022/06/26 12:15:30;;;;;;;3.92;3.60;;;31.60;95.30;;;;;;5027839;28;20300;-76
2022/06/26 12:17:59;;;;;;;3.28;3.08;;;31.70;95.10;;;;;;5028257;28;20232;-75
2022/06/26 12:20:27;;;;;;;3.30;3.10;;;31.90;94.50;;;;;;5027893;28;20625;-75
2022/06/26 12:22:56;;;;;;;2.80;2.60;;;31.90;93.90;;;;;;5027656;28;20915;-75
2022/06/26 12:25:28;;;;;;;2.42;2.33;;;32.00;93.00;;;;;;5028081;28;21072;-75
2022/06/26 12:27:55;;;;;;;3.00;2.70;;;32.10;92.20;;;;;;5027685;28;20201;-76
2022/06/26 12:30:26;;;;;;;2.53;2.42;;;32.20;92.20;;;;;;5026328;28;20201;-75
2022/06/26 12:32:52;;;;;;;2.97;2.80;;;32.30;92.10;;;;;;5008275;28;20198;-75
2022/06/26 12:35:20;;;;;;;2.83;2.55;;;32.30;92.50;;;;;;5008124;28;20205;-75
2022/06/26 12:37:46;;;;;;;2.92;2.72;;;32.40;91.90;;;;;;5008173;28;20217;-76
2022/06/26 12:40:13;;;;;;;3.25;3.05;;;32.60;91.60;;;;;;5008362;28;20209;-76
2022/06/26 12:42:40;;;;;;;2.90;2.70;;;32.60;92.40;;;;;;5023898;28;20245;-75
2022/06/26 12:45:09;;;;;;;2.63;2.53;;;32.60;91.70;;;;;;5007714;28;20197;-76
2022/06/26 12:47:37;;;;;;;2.90;2.80;;;32.80;92.10;;;;;;5008355;28;20210;-76
2022/06/26 12:50:05;;;;;;;3.25;3.03;;;32.80;92.10;;;;;;5008067;28;20202;-75
2022/06/26 12:52:33;;;;;;;3.40;3.20;;;32.90;91.50;;;;;;5016777;28;20212;-76
2022/06/26 12:55:00;;;;;;;3.30;3.10;;;33.00;92.20;;;;;;5027949;28;20200;-75
2022/06/26 12:57:27;;;;;;;3.67;3.40;;;33.10;91.40;;;;;;5027704;28;20229;-76
2022/06/26 12:59:53;;;;;;;3.50;3.35;;;33.20;91.30;;;;;;5027503;28;20212;-75